Time;durP1;ratioP1;P1;durP2;ratioP2;P2;SDS_P1;SDS_P2;PMS_P1;PMS_P2;Temp;Humidity;BMP_temperature;BMP_pressure;BME280_temperature;BME280_humidity;BME280_pressure;Samples;Min_cycle;Max_cycle;Signal;HPM_P1;HPM_P2
2021/04/12 00:00:27;;;;;;;20.13;11.73;;;;;;;10.31;66.90;101908.97;5054566;28;20021;-73
2021/04/12 00:03:18;;;;;;;17.70;11.30;;;;;;;10.57;63.56;101898.53;5053712;28;20052;-72
2021/04/12 00:06:14;;;;;;;17.15;10.05;;;;;;;10.46;63.40;101900.25;5039738;28;20074;-73
2021/04/12 00:09:17;;;;;;;16.10;10.23;;;;;;;10.46;64.35;101900.25;5054193;28;20025;-73
2021/04/12 00:12:13;;;;;;;17.58;10.60;;;;;;;10.20;64.65;101907.19;5039210;28;20060;-73
2021/04/12 00:15:07;;;;;;;15.73;10.20;;;;;;;9.92;70.87;101900.94;5054076;28;20039;-73
2021/04/12 00:17:57;;;;;;;16.02;10.25;;;;;;;9.97;72.69;101909.72;5054164;28;20118;-74
2021/04/12 00:20:53;;;;;;;14.88;10.35;;;;;;;9.91;74.91;101894.84;5054246;28;20049;-73
2021/04/12 00:23:45;;;;;;;15.68;9.93;;;;;;;9.81;75.49;101894.81;5053124;28;20045;-73
2021/04/12 00:26:55;;;;;;;15.57;9.40;;;;;;;9.51;76.30;101890.28;5054054;28;20021;-73
2021/04/12 00:30:05;;;;;;;19.63;9.80;;;;;;;9.61;76.82;101892.06;5038171;28;20025;-73
2021/04/12 00:33:24;;;;;;;14.70;9.38;;;;;;;9.65;77.51;101885.13;5053292;28;20104;-73
2021/04/12 00:36:16;;;;;;;16.73;9.98;;;;;;;9.91;76.89;101888.72;5039327;28;20102;-72
2021/04/12 00:39:08;;;;;;;14.68;9.57;;;;;;;10.14;73.93;101880.09;5039114;28;20445;-73
2021/04/12 00:42:16;;;;;;;14.05;9.02;;;;;;;10.05;70.96;101877.47;5039118;28;20029;-72
2021/04/12 00:45:23;;;;;;;10.57;7.05;;;;;;;10.29;67.26;101873.16;5038569;28;20146;-73
2021/04/12 00:48:33;;;;;;;12.82;8.95;;;;;;;10.09;70.35;101881.84;5039226;28;20098;-73
2021/04/12 00:51:48;;;;;;;14.82;9.00;;;;;;;10.34;70.68;101882.78;5052895;28;20496;-73
2021/04/12 00:55:12;;;;;;;13.93;9.15;;;;;;;10.22;71.77;101882.75;5030851;28;20033;-73
2021/04/12 00:58:07;;;;;;;13.75;8.60;;;;;;;10.13;72.50;101882.75;5053171;28;20116;-73
2021/04/12 01:01:10;;;;;;;14.82;8.32;;;;;;;10.21;69.98;101875.78;5053450;28;20446;-72
2021/04/12 01:04:23;;;;;;;13.85;8.27;;;;;;;9.86;70.26;101877.38;5053193;28;20037;-73
2021/04/12 01:07:29;;;;;;;14.65;8.23;;;;;;;9.94;70.92;101886.13;5039872;28;20031;-73
2021/04/12 01:10:21;;;;;;;15.18;8.60;;;;;;;9.94;71.46;101879.13;5052750;28;20477;-72
2021/04/12 01:13:12;;;;;;;11.63;8.77;;;;;;;10.11;72.29;101879.22;5053480;28;20107;-73
2021/04/12 01:16:35;;;;;;;14.98;9.48;;;;;;;9.84;80.22;101873.84;5053247;28;20086;-72
2021/04/12 01:19:53;;;;;;;13.55;8.98;;;;;;;9.75;82.39;101874.72;5038294;28;20032;-74
2021/04/12 01:23:00;;;;;;;17.08;7.88;;;;;;;9.40;84.10;101878.88;5032340;28;20069;-74
2021/04/12 01:26:10;;;;;;;12.45;8.70;;;;;;;9.07;84.91;101872.56;5033320;28;20017;-73
2021/04/12 01:29:13;;;;;;;13.20;8.43;;;;;;;9.14;84.10;101874.38;5032972;28;20025;-73
2021/04/12 01:32:12;;;;;;;12.98;8.43;;;;;;;8.95;86.38;101875.97;5032639;28;20028;-72
2021/04/12 01:35:26;;;;;;;13.63;8.30;;;;;;;8.94;84.76;101878.56;5033930;28;20115;-74
2021/04/12 01:38:38;;;;;;;11.70;8.20;;;;;;;9.03;85.04;101865.56;5033612;28;20021;-73
2021/04/12 01:42:02;;;;;;;12.55;8.32;;;;;;;9.24;84.20;101863.97;5036972;28;20025;-73
2021/04/12 01:45:10;;;;;;;11.13;8.27;;;;;;;9.01;83.55;101865.53;5037322;28;20033;-73
2021/04/12 01:48:05;;;;;;;12.32;8.63;;;;;;;9.06;84.63;101863.88;5038298;28;20030;-72
2021/04/12 01:51:10;;;;;;;14.05;9.15;;;;;;;8.60;88.00;101853.91;5036568;28;20167;-73
2021/04/12 01:54:29;;;;;;;14.10;8.75;;;;;;;8.65;88.30;101860.03;5036577;28;20410;-73
2021/04/12 01:57:56;;;;;;;16.63;9.35;;;;;;;8.31;88.84;101850.16;5036155;28;20101;-73
2021/04/12 02:00:52;;;;;;;16.73;9.80;;;;;;;8.28;90.59;101847.50;5036555;28;20446;-73
2021/04/12 02:03:59;;;;;;;14.45;8.98;;;;;;;8.30;90.55;101850.13;5035760;28;20394;-73
2021/04/12 02:07:29;;;;;;;13.18;8.77;;;;;;;8.56;89.92;101848.66;5036490;28;20136;-73
2021/04/12 02:10:34;;;;;;;14.88;9.50;;;;;;;8.51;91.48;101850.34;5027823;28;20040;-73
2021/04/12 02:13:32;;;;;;;14.20;9.38;;;;;;;8.69;90.97;101846.13;5036308;28;20371;-73
2021/04/12 02:16:45;;;;;;;17.17;9.27;;;;;;;8.51;91.49;101835.56;5036190;28;20057;-73
2021/04/12 02:19:50;;;;;;;14.55;9.63;;;;;;;8.47;89.86;101840.72;5037267;28;20021;-75
2021/04/12 02:22:53;;;;;;;14.30;9.02;;;;;;;8.59;90.95;101833.88;5042620;28;20116;-74
2021/04/12 02:25:54;;;;;;;16.45;9.48;;;;;;;8.63;92.69;101826.94;5056652;28;20025;-73
2021/04/12 02:28:46;;;;;;;16.33;10.10;;;;;;;8.57;97.83;101825.13;5056018;28;20036;-73
2021/04/12 02:31:50;;;;;;;17.65;10.30;;;;;;;8.48;99.92;101822.47;5055869;28;20025;-73
2021/04/12 02:34:46;;;;;;;18.85;10.35;;;;;;;8.48;100.00;101819.00;5056122;28;20024;-74
2021/04/12 02:37:41;;;;;;;15.75;9.75;;;;;;;8.28;100.00;101821.41;5041819;28;20032;-73
2021/04/12 02:40:36;;;;;;;15.98;9.38;;;;;;;8.64;98.36;101815.63;5041320;28;20033;-73
2021/04/12 02:43:33;;;;;;;16.35;10.35;;;;;;;8.79;96.67;101811.41;5056220;28;20029;-73
2021/04/12 02:46:41;;;;;;;15.13;9.85;;;;;;;8.36;100.00;101803.22;5041778;28;20127;-73
2021/04/12 02:49:38;;;;;;;17.75;10.23;;;;;;;8.11;100.00;101807.28;5056364;28;20029;-73
2021/04/12 02:53:01;;;;;;;16.77;10.27;;;;;;;8.63;99.61;101811.25;5054537;28;20390;-73
2021/04/12 02:55:58;;;;;;;16.10;9.93;;;;;;;8.17;100.00;101809.97;5055214;28;20032;-74
2021/04/12 02:59:02;;;;;;;14.93;9.20;;;;;;;8.33;96.60;101806.66;5055501;28;20035;-72
2021/04/12 03:02:12;;;;;;;14.80;9.23;;;;;;;8.34;96.15;101808.41;5055884;28;20065;-73
2021/04/12 03:05:33;;;;;;;14.35;9.77;;;;;;;8.20;97.73;101804.75;5054957;28;20389;-73
2021/04/12 03:08:30;;;;;;;16.08;10.20;;;;;;;8.27;100.00;101810.94;5055521;28;20047;-73
2021/04/12 03:11:56;;;;;;;15.65;10.57;;;;;;;8.41;100.00;101801.50;5040800;28;20017;-72
2021/04/12 03:15:09;;;;;;;14.65;10.90;;;;;;;8.21;100.00;101806.56;5055388;28;20082;-73
2021/04/12 03:18:10;;;;;;;17.38;11.35;;;;;;;8.32;100.00;101797.06;5055347;28;20048;-72
2021/04/12 03:21:31;;;;;;;14.85;10.35;;;;;;;8.26;100.00;101797.03;5041081;28;20044;-74
2021/04/12 03:24:32;;;;;;;16.50;10.73;;;;;;;8.35;100.00;101801.44;5040151;28;20045;-73
2021/04/12 03:27:30;;;;;;;15.95;11.30;;;;;;;8.12;100.00;101802.97;5054887;28;20025;-73
2021/04/12 03:30:47;;;;;;;16.42;10.07;;;;;;;7.88;100.00;101800.94;5040299;28;20040;-74
2021/04/12 03:33:36;;;;;;;17.58;10.55;;;;;;;7.86;100.00;101800.06;5054082;28;20036;-72
2021/04/12 03:36:34;;;;;;;15.82;10.90;;;;;;;7.95;100.00;101809.72;5054919;28;20040;-72
2021/04/12 03:39:28;;;;;;;18.02;10.98;;;;;;;7.93;100.00;101806.22;5054598;28;20067;-73
2021/04/12 03:42:50;;;;;;;16.00;11.00;;;;;;;7.83;100.00;101813.06;5054815;28;20032;-73
2021/04/12 03:45:47;;;;;;;17.30;11.60;;;;;;;7.98;100.00;101801.94;5039363;28;20020;-73
2021/04/12 03:49:00;;;;;;;18.35;11.50;;;;;;;7.92;100.00;101801.88;5055517;28;20064;-74
2021/04/12 03:52:05;;;;;;;17.60;11.25;;;;;;;7.83;100.00;101800.03;5039338;28;20087;-74
2021/04/12 03:55:12;;;;;;;18.10;10.80;;;;;;;7.87;100.00;101798.31;5054703;28;20468;-73
2021/04/12 03:58:17;;;;;;;19.83;10.93;;;;;;;7.94;100.00;101800.16;5039531;28;20025;-74
2021/04/12 04:01:17;;;;;;;25.85;11.90;;;;;;;7.86;100.00;101796.56;5039821;28;20123;-73
2021/04/12 04:04:46;;;;;;;18.63;11.30;;;;;;;8.17;100.00;101807.38;5053412;28;20033;-74
2021/04/12 04:07:57;;;;;;;21.67;11.48;;;;;;;8.30;100.00;101797.91;5054755;28;20361;-72
2021/04/12 04:11:14;;;;;;;19.38;12.07;;;;;;;8.08;100.00;101803.78;5054073;28;20029;-74
2021/04/12 04:14:06;;;;;;;19.20;12.02;;;;;;;8.63;100.00;101808.63;5053678;28;20078;-74
2021/04/12 04:17:36;;;;;;;24.67;12.30;;;;;;;8.08;100.00;101816.84;5053846;28;20021;-74
2021/04/12 04:21:03;;;;;;;20.70;12.48;;;;;;;8.76;100.00;101820.97;5021038;28;20037;-73
2021/04/12 04:23:58;;;;;;;24.88;13.38;;;;;;;8.98;100.00;101815.00;5039201;28;20085;-73
2021/04/12 04:27:03;;;;;;;32.05;17.00;;;;;;;9.07;100.00;101815.94;5053429;28;20449;-74
2021/04/12 04:29:48;;;;;;;24.92;14.50;;;;;;;8.86;100.00;101813.19;5052534;28;20420;-74
2021/04/12 04:32:42;;;;;;;26.10;13.52;;;;;;;8.91;100.00;101819.31;5039327;28;20099;-73
2021/04/12 04:35:51;;;;;;;26.88;13.13;;;;;;;8.73;100.00;101813.94;5053765;28;20037;-73
2021/04/12 04:38:56;;;;;;;25.40;13.80;;;;;;;8.67;100.00;101813.91;5054249;28;20025;-73
2021/04/12 04:41:57;;;;;;;30.20;14.65;;;;;;;9.09;100.00;101808.09;5060940;28;20025;-73
2021/04/12 04:45:13;;;;;;;29.23;16.75;;;;;;;9.03;100.00;101810.66;5057348;28;20107;-73
2021/04/12 04:48:23;;;;;;;30.23;17.02;;;;;;;8.88;100.00;101815.81;5053090;28;20035;-74
2021/04/12 04:51:32;;;;;;;32.08;17.27;;;;;;;8.55;100.00;101812.94;5053367;28;20423;-74
2021/04/12 04:54:50;;;;;;;23.38;15.52;;;;;;;8.48;100.00;101812.00;5053434;28;20025;-73
2021/04/12 04:58:11;;;;;;;22.52;13.38;;;;;;;8.90;99.97;101811.47;5038940;28;20029;-73
2021/04/12 05:01:09;;;;;;;24.00;13.52;;;;;;;9.10;97.16;101817.69;5054388;28;20405;-74
2021/04/12 05:04:22;;;;;;;29.52;14.07;;;;;;;9.40;96.75;101823.06;5053100;28;20120;-74
2021/04/12 05:07:44;;;;;;;20.65;13.25;;;;;;;9.52;94.81;101816.16;5053651;28;20032;-74
2021/04/12 05:10:39;;;;;;;27.13;13.70;;;;;;;9.41;94.54;101830.94;5053099;28;20056;-74
2021/04/12 05:13:39;;;;;;;27.50;14.38;;;;;;;9.48;92.83;101821.38;5052606;28;20021;-73
2021/04/12 05:16:50;;;;;;;24.90;13.88;;;;;;;9.46;88.23;101821.38;5056505;28;20315;-73
2021/04/12 05:19:51;;;;;;;24.20;15.25;;;;;;;9.58;81.52;101824.06;5057616;28;20043;-73
2021/04/12 05:23:00;;;;;;;24.55;14.82;;;;;;;9.60;80.68;101824.94;5043051;28;20413;-75
2021/04/12 05:26:03;;;;;;;27.20;15.15;;;;;;;9.57;77.72;101822.28;5057376;28;20025;-73
2021/04/12 05:29:26;;;;;;;24.10;13.48;;;;;;;9.91;75.79;101821.56;5057193;28;20046;-74
2021/04/12 05:32:30;;;;;;;23.05;13.25;;;;;;;10.21;72.25;101823.41;5056835;28;20032;-74
2021/04/12 05:35:28;;;;;;;21.40;11.27;;;;;;;9.91;73.23;101828.50;5057008;28;20037;-74
2021/04/12 05:39:08;;;;;;;20.80;10.75;;;;;;;10.33;70.48;101822.53;5056494;28;20029;-75
2021/04/12 05:42:15;;;;;;;14.10;9.30;;;;;;;10.16;70.32;101813.78;4995360;28;20180;-74
2021/04/12 05:45:15;;;;;;;14.65;7.95;;;;;;;9.47;72.07;101827.47;5056763;28;20108;-74
2021/04/12 05:48:10;;;;;;;15.05;9.13;;;;;;;10.18;71.41;101815.53;5042258;28;20090;-74
2021/04/12 05:51:33;;;;;;;16.30;10.23;;;;;;;10.06;72.67;101820.75;5042693;28;20130;-73
2021/04/12 05:54:43;;;;;;;21.40;10.48;;;;;;;10.65;69.45;101821.66;5056183;28;20033;-75
2021/04/12 05:57:51;;;;;;;23.15;9.82;;;;;;;10.88;68.94;101814.66;5055812;28;20029;-74
2021/04/12 06:00:40;;;;;;;15.45;8.48;;;;;;;10.69;68.38;101812.06;5057068;28;20025;-74
2021/04/12 06:03:42;;;;;;;17.75;8.10;;;;;;;10.86;67.77;101803.31;5056284;28;20033;-75
2021/04/12 06:06:40;;;;;;;16.85;8.50;;;;;;;10.85;65.73;101806.78;5041878;28;20036;-76
2021/04/12 06:10:02;;;;;;;15.25;8.55;;;;;;;10.98;66.98;101816.41;5056570;28;20427;-74
2021/04/12 06:13:25;;;;;;;14.93;8.25;;;;;;;10.85;68.12;101814.66;5056627;28;20158;-74
2021/04/12 06:16:29;;;;;;;13.45;8.07;;;;;;;11.18;68.19;101808.47;5055533;28;20083;-73
2021/04/12 06:19:42;;;;;;;11.93;7.40;;;;;;;11.29;67.86;101814.59;5056858;28;20037;-74
2021/04/12 06:22:49;;;;;;;15.90;8.45;;;;;;;11.06;69.77;101812.03;5056146;28;20118;-73
2021/04/12 06:25:45;;;;;;;12.43;7.13;;;;;;;10.97;72.02;101809.38;5056880;28;20461;-74
2021/04/12 06:29:28;;;;;;;8.95;6.63;;;;;;;11.11;72.88;101818.13;5055549;28;20515;-74
2021/04/12 06:32:20;;;;;;;10.35;6.25;;;;;;;11.10;73.29;101818.13;4956211;29;20070;-73
2021/04/12 06:35:39;;;;;;;16.58;8.82;;;;;;;11.11;77.15;101818.13;4956636;29;20045;-72
2021/04/12 06:38:57;;;;;;;9.02;6.68;;;;;;;11.09;79.69;101819.84;5056187;28;20025;-73
2021/04/12 06:42:14;;;;;;;17.65;7.07;;;;;;;11.74;75.10;101817.06;5041317;28;20028;-74
2021/04/12 06:45:09;;;;;;;8.52;6.50;;;;;;;12.08;73.89;101803.72;5055312;28;20044;-72
2021/04/12 06:48:12;;;;;;;12.10;6.80;;;;;;;11.99;75.40;101801.16;5055828;28;20143;-73
2021/04/12 06:51:08;;;;;;;9.57;6.97;;;;;;;11.90;74.30;101816.94;5055799;28;20029;-73
2021/04/12 06:54:12;;;;;;;11.93;6.95;;;;;;;12.14;74.82;101813.34;5055579;28;20343;-72
2021/04/12 06:57:29;;;;;;;17.30;7.70;;;;;;;11.93;77.00;101814.31;5055366;28;20025;-73
2021/04/12 07:00:33;;;;;;;13.65;7.05;;;;;;;12.23;75.71;101802.75;5055908;28;20033;-74
2021/04/12 07:03:56;;;;;;;11.68;7.07;;;;;;;12.37;76.74;101807.03;5056466;28;20633;-73
2021/04/12 07:07:19;;;;;;;11.35;7.65;;;;;;;13.02;73.00;101809.97;5055345;28;20017;-72
2021/04/12 07:10:32;;;;;;;14.70;7.82;;;;;;;12.56;74.67;101815.63;5054286;28;20362;-74
2021/04/12 07:13:39;;;;;;;15.63;8.70;;;;;;;12.40;75.62;101808.75;5056042;28;20029;-74
2021/04/12 07:16:33;;;;;;;14.70;8.30;;;;;;;12.76;74.34;101811.09;5054674;28;20332;-73
2021/04/12 07:19:44;;;;;;;13.88;8.77;;;;;;;12.59;76.66;101808.63;5041541;28;20071;-77
2021/04/12 07:22:52;;;;;;;16.85;8.50;;;;;;;13.25;74.66;101813.25;5055109;28;20041;-74
2021/04/12 07:26:22;;;;;;;13.50;8.70;;;;;;;13.80;72.24;101813.44;5054898;28;20409;-73
2021/04/12 07:29:45;;;;;;;15.05;8.85;;;;;;;13.94;71.31;101806.22;5055219;28;20108;-73
2021/04/12 07:32:55;;;;;;;11.63;7.25;;;;;;;13.94;69.30;101801.84;5054823;28;20029;-73
2021/04/12 07:36:15;;;;;;;15.98;9.73;;;;;;;13.68;68.71;101798.69;5055280;28;20021;-73
2021/04/12 07:39:13;;;;;;;18.60;8.38;;;;;;;14.11;68.48;101791.91;5056960;28;20028;-74
2021/04/12 07:42:17;;;;;;;9.68;6.65;;;;;;;14.44;64.90;101794.06;5056510;28;20063;-75
2021/04/12 07:46:00;;;;;;;8.43;6.28;;;;;;;14.44;64.81;101790.56;5054759;28;20033;-75
2021/04/12 07:49:01;;;;;;;11.27;6.65;;;;;;;14.65;64.47;101782.28;5019199;28;20025;-73
2021/04/12 07:52:12;;;;;;;11.02;6.25;;;;;;;15.16;63.09;101780.47;5054471;28;20087;-74
2021/04/12 07:55:00;;;;;;;7.75;5.53;;;;;;;15.17;58.98;101777.81;5056320;28;20036;-74
2021/04/12 07:58:01;;;;;;;9.20;6.30;;;;;;;15.48;58.14;101775.44;5055670;28;20036;-73
2021/04/12 08:01:02;;;;;;;7.85;5.80;;;;;;;16.22;54.24;101777.28;5055012;28;20025;-73
2021/04/12 08:04:21;;;;;;;9.23;5.85;;;;;;;16.55;53.79;101769.44;5054629;28;20017;-73
2021/04/12 08:07:44;;;;;;;9.95;6.20;;;;;;;16.48;53.97;101767.00;5031112;28;20449;-74
2021/04/12 08:10:50;;;;;;;9.85;5.95;;;;;;;16.47;52.05;101757.31;5053910;28;20322;-73
2021/04/12 08:14:13;;;;;;;8.68;5.82;;;;;;;17.40;51.02;101757.41;5054891;28;20029;-73
2021/04/12 08:17:30;;;;;;;10.23;6.03;;;;;;;17.83;48.63;101761.41;5053317;28;20087;-73
2021/04/12 08:20:55;;;;;;;9.68;6.28;;;;;;;17.14;49.41;101760.78;5053488;28;20350;-73
2021/04/12 08:24:18;;;;;;;13.00;7.22;;;;;;;17.17;49.49;101763.38;5054292;28;20076;-73
2021/04/12 08:27:15;;;;;;;10.48;7.32;;;;;;;18.02;48.73;101762.59;5053307;28;20063;-73
2021/04/12 08:30:28;;;;;;;11.93;6.60;;;;;;;18.07;48.10;101749.16;5054667;28;20029;-74
2021/04/12 08:33:36;;;;;;;8.27;6.15;;;;;;;18.11;46.67;101758.75;5052970;28;20021;-74
2021/04/12 08:36:51;;;;;;;10.15;6.45;;;;;;;18.48;45.69;101754.03;5054179;28;20032;-74
2021/04/12 08:40:04;;;;;;;7.22;5.25;;;;;;;18.14;40.22;101761.31;5053404;28;20025;-73
2021/04/12 08:42:56;;;;;;;8.10;4.72;;;;;;;18.59;35.67;101762.50;5039994;28;20097;-73
2021/04/12 08:45:45;;;;;;;6.95;4.50;;;;;;;18.87;36.07;101758.84;5039236;28;20118;-73
2021/04/12 08:48:49;;;;;;;9.02;4.90;;;;;;;18.52;40.33;101756.53;5053781;28;20496;-73
2021/04/12 08:52:33;;;;;;;7.72;5.10;;;;;;;18.84;40.44;101755.41;5051936;28;20025;-74
2021/04/12 08:55:55;;;;;;;6.85;4.53;;;;;;;18.43;40.86;101748.00;5045428;28;20045;-72
2021/04/12 08:58:50;;;;;;;8.10;4.47;;;;;;;19.67;38.53;101734.63;5052831;28;20449;-74
2021/04/12 09:01:42;;;;;;;7.45;4.32;;;;;;;19.46;38.48;101737.25;5053862;28;20024;-73
2021/04/12 09:04:34;;;;;;;8.07;4.55;;;;;;;19.29;37.94;101735.19;5053431;28;20457;-74
2021/04/12 09:07:40;;;;;;;5.90;3.88;;;;;;;19.48;36.27;101728.28;5053755;28;20032;-74
2021/04/12 09:10:46;;;;;;;6.63;4.10;;;;;;;19.56;34.57;101728.00;5016462;28;20426;-74
2021/04/12 09:14:26;;;;;;;5.18;3.72;;;;;;;18.99;32.77;101720.38;5038771;28;20037;-73
2021/04/12 09:17:17;;;;;;;5.13;3.67;;;;;;;19.66;32.08;101711.63;4942112;28;20028;-73
2021/04/12 09:20:23;;;;;;;5.07;3.58;;;;;;;19.28;32.12;101714.03;5053359;28;20032;-74
2021/04/12 09:23:14;;;;;;;7.05;3.78;;;;;;;18.90;31.64;101702.94;5038506;28;20118;-73
2021/04/12 09:26:03;;;;;;;6.30;3.75;;;;;;;19.61;31.69;101710.09;5039114;28;20417;-72
2021/04/12 09:29:00;;;;;;;5.53;3.65;;;;;;;19.97;30.93;101698.84;5053194;28;20020;-73
2021/04/12 09:32:23;;;;;;;6.25;3.72;;;;;;;20.11;30.14;101691.19;5038574;28;20017;-72
2021/04/12 09:35:33;;;;;;;5.50;3.50;;;;;;;20.16;28.91;101696.31;5053021;28;20021;-72
2021/04/12 09:38:43;;;;;;;3.92;2.50;;;;;;;19.86;24.08;101682.47;5039141;28;20413;-73
2021/04/12 09:42:05;;;;;;;5.65;3.05;;;;;;;20.47;25.09;101683.47;5052132;28;20033;-73
2021/04/12 09:45:11;;;;;;;4.40;2.83;;;;;;;20.09;25.07;101676.19;5053043;28;20040;-73
2021/04/12 09:48:21;;;;;;;3.70;2.83;;;;;;;20.27;24.25;101678.13;5053406;28;20079;-73
2021/04/12 09:51:24;;;;;;;3.97;2.80;;;;;;;19.30;25.15;101670.53;5052939;28;20032;-72
2021/04/12 09:54:41;;;;;;;6.80;2.78;;;;;;;20.28;26.53;101667.41;5039526;28;20485;-75
2021/04/12 09:57:45;;;;;;;5.60;3.20;;;;;;;19.20;28.86;101658.47;5052504;28;20024;-73
2021/04/12 10:00:34;;;;;;;7.68;3.40;;;;;;;19.54;29.08;101658.06;5039030;28;20107;-72
2021/04/12 10:03:29;;;;;;;7.25;3.88;;;;;;;19.69;29.35;101654.81;5054592;28;20048;-72
2021/04/12 10:06:56;;;;;;;6.13;3.03;;;;;;;20.17;27.06;101647.50;5042524;28;20393;-72
2021/04/12 10:10:04;;;;;;;4.78;3.10;;;;;;;20.22;26.62;101648.19;5036520;28;20044;-73
2021/04/12 10:13:16;;;;;;;4.18;2.90;;;;;;;19.16;27.31;101631.16;5042750;28;20079;-74
2021/04/12 10:16:04;;;;;;;4.30;3.08;;;;;;;19.99;26.94;101635.81;5055749;28;20486;-72
2021/04/12 10:19:08;;;;;;;6.00;3.22;;;;;;;20.06;25.50;101623.09;5056661;28;20035;-73
2021/04/12 10:22:05;;;;;;;3.47;2.80;;;;;;;20.14;24.52;101629.88;5041622;28;20083;-73
2021/04/12 10:24:57;;;;;;;4.78;2.60;;;;;;;20.47;23.82;101617.78;5057049;28;20033;-73
2021/04/12 10:27:50;;;;;;;3.92;2.80;;;;;;;20.24;24.36;101620.56;5057954;28;20017;-74
2021/04/12 10:31:03;;;;;;;4.47;2.72;;;;;;;20.69;24.26;101607.88;5058718;28;20025;-74
2021/04/12 10:34:01;;;;;;;5.05;2.83;;;;;;;20.39;24.66;101611.03;5056670;28;20040;-73
2021/04/12 10:37:11;;;;;;;4.82;2.88;;;;;;;20.64;24.25;101607.25;5057531;28;20029;-74
2021/04/12 10:40:08;;;;;;;4.70;2.90;;;;;;;20.71;23.47;101602.50;5041739;28;20039;-74
2021/04/12 10:43:34;;;;;;;4.78;3.10;;;;;;;20.47;23.16;101604.47;5056032;28;20032;-74
2021/04/12 10:46:26;;;;;;;3.88;2.80;;;;;;;20.61;23.90;101596.72;4955804;29;20047;-73
2021/04/12 10:49:35;;;;;;;4.20;2.70;;;;;;;20.69;23.95;101591.06;5041702;28;20108;-74
2021/04/12 10:52:48;;;;;;;3.38;2.90;;;;;;;20.97;24.07;101596.91;5055405;28;20119;-74
2021/04/12 10:55:46;;;;;;;3.53;2.75;;;;;;;20.77;24.84;101589.75;5055721;28;20025;-74
2021/04/12 10:58:41;;;;;;;7.55;3.13;;;;;;;20.92;24.48;101589.09;5056049;28;20159;-74
2021/04/12 11:01:39;;;;;;;7.93;3.55;;;;;;;21.34;23.96;101591.56;5041831;28;20040;-74
2021/04/12 11:04:30;;;;;;;3.75;2.85;;;;;;;21.97;23.18;101591.06;5055266;28;20048;-74
2021/04/12 11:07:53;;;;;;;7.80;3.65;;;;;;;21.53;24.13;101579.91;5056059;28;20104;-73
2021/04/12 11:11:09;;;;;;;5.43;3.50;;;;;;;21.20;23.80;101581.56;5056539;28;20036;-75
2021/04/12 11:14:20;;;;;;;6.82;3.58;;;;;;;21.48;23.88;101571.28;5054954;28;20393;-73
2021/04/12 11:17:20;;;;;;;5.68;3.42;;;;;;;21.76;23.57;101570.81;5055021;28;20109;-76
2021/04/12 11:20:29;;;;;;;6.88;3.50;;;;;;;20.84;24.26;101558.38;5040686;28;20097;-74
2021/04/12 11:23:37;;;;;;;5.70;3.17;;;;;;;21.65;23.94;101565.97;5054620;28;20081;-73
2021/04/12 11:26:46;;;;;;;4.80;3.35;;;;;;;21.17;23.93;101556.81;5055021;28;20108;-74
2021/04/12 11:29:35;;;;;;;5.03;3.60;;;;;;;21.94;23.88;101560.06;5039463;28;20094;-74
2021/04/12 11:32:25;;;;;;;9.23;3.95;;;;;;;22.15;24.58;101553.63;5054968;28;20104;-75
2021/04/12 11:35:21;;;;;;;5.55;4.13;;;;;;;22.76;23.81;101554.81;5055288;28;20365;-74
2021/04/12 11:38:12;;;;;;;8.88;4.22;;;;;;;22.54;23.66;101540.00;5054365;28;20058;-75
2021/04/12 11:41:05;;;;;;;9.48;4.85;;;;;;;22.34;24.70;101546.38;5054950;28;20040;-74
2021/04/12 11:43:55;;;;;;;7.70;4.22;;;;;;;23.04;23.87;101541.66;5039547;28;20450;-74
2021/04/12 11:47:02;;;;;;;6.20;4.03;;;;;;;22.53;24.35;101539.16;5054480;28;20059;-75
2021/04/12 11:50:16;;;;;;;7.70;4.03;;;;;;;22.73;24.37;101538.06;5054627;28;20037;-75
2021/04/12 11:53:20;;;;;;;9.63;4.22;;;;;;;22.55;24.59;101531.91;5054211;28;20037;-75
2021/04/12 11:56:30;;;;;;;6.50;4.22;;;;;;;22.53;24.10;101528.47;5054268;28;20025;-74
2021/04/12 11:59:39;;;;;;;6.70;4.40;;;;;;;22.89;24.29;101521.13;5054573;28;20374;-74
2021/04/12 12:02:58;;;;;;;26.27;21.42;;;;;;;23.19;24.74;101524.75;5039285;28;20446;-74
2021/04/12 12:06:06;;;;;;;7.88;5.03;;;;;;;23.38;24.14;101525.47;5053447;28;20108;-75
2021/04/12 12:09:28;;;;;;;7.80;3.88;;;;;;;21.79;24.64;101512.81;5053811;28;20435;-74
2021/04/12 12:12:33;;;;;;;7.80;4.35;;;;;;;22.88;23.98;101508.72;5053947;28;20347;-74
2021/04/12 12:15:20;;;;;;;4.95;3.63;;;;;;;22.80;24.19;101515.44;5053488;28;20029;-74
2021/04/12 12:18:19;;;;;;;17.23;10.82;;;;;;;23.13;23.91;101509.06;5054022;28;20120;-74
2021/04/12 12:21:18;;;;;;;7.13;4.75;;;;;;;23.09;23.35;101510.19;5053279;28;20051;-75
2021/04/12 12:24:33;;;;;;;5.15;3.83;;;;;;;23.20;22.69;101509.59;5053602;28;20436;-75
2021/04/12 12:27:41;;;;;;;8.65;3.58;;;;;;;23.26;23.13;101499.41;5039435;28;20024;-74
2021/04/12 12:30:43;;;;;;;8.52;3.65;;;;;;;23.46;22.39;101497.41;5053948;28;20527;-73
2021/04/12 12:33:38;;;;;;;6.53;4.32;;;;;;;23.16;22.98;101492.81;5053667;28;20098;-75
2021/04/12 12:36:54;;;;;;;6.70;4.38;;;;;;;23.15;22.90;101495.63;5053692;28;20462;-75
2021/04/12 12:39:50;;;;;;;5.72;3.90;;;;;;;22.69;23.50;101483.09;5053534;28;20032;-73
2021/04/12 12:42:40;;;;;;;7.43;3.75;;;;;;;22.82;23.11;101481.44;5039550;28;20067;-73
2021/04/12 12:45:34;;;;;;;5.65;3.10;;;;;;;22.28;23.41;101469.28;5053477;28;20035;-73
2021/04/12 12:48:25;;;;;;;6.38;3.28;;;;;;;22.92;23.39;101472.84;5053924;28;20029;-72
2021/04/12 12:51:16;;;;;;;6.20;3.47;;;;;;;22.54;23.88;101459.88;5038144;28;20450;-72
2021/04/12 12:54:07;;;;;;;8.18;3.97;;;;;;;23.43;23.53;101452.97;5053357;28;20434;-73
2021/04/12 12:57:05;;;;;;;4.13;3.15;;;;;;;23.05;23.41;101459.63;5052910;28;20040;-73
2021/04/12 12:59:53;;;;;;;9.82;4.95;;;;;;;22.50;23.10;101447.63;5037977;28;20107;-74
2021/04/12 13:02:41;;;;;;;7.65;3.40;;;;;;;22.14;22.75;101444.28;5038445;28;20029;-73
2021/04/12 13:05:33;;;;;;;5.05;3.65;;;;;;;22.56;23.57;101440.19;5053334;28;20074;-73
2021/04/12 13:08:27;;;;;;;6.05;3.33;;;;;;;22.45;24.01;101439.88;5038979;28;20380;-73
2021/04/12 13:11:33;;;;;;;5.07;3.10;;;;;;;21.99;24.19;101439.75;5038462;28;20017;-73
2021/04/12 13:14:46;;;;;;;9.23;3.40;;;;;;;21.84;23.79;101433.41;5053314;28;20041;-74
2021/04/12 13:17:39;;;;;;;5.90;3.50;;;;;;;22.30;23.63;101430.00;5053187;28;20115;-73
2021/04/12 13:20:39;;;;;;;8.00;3.53;;;;;;;22.74;23.03;101430.25;5053009;28;20165;-73
2021/04/12 13:23:49;;;;;;;8.35;3.50;;;;;;;22.68;23.13;101428.81;5053429;28;20049;-74
2021/04/12 13:26:45;;;;;;;9.07;3.40;;;;;;;22.43;22.48;101419.53;5039143;28;20104;-74
2021/04/12 13:29:44;;;;;;;7.10;3.30;;;;;;;21.86;22.59;101414.66;5038943;28;20021;-74
2021/04/12 13:32:38;;;;;;;4.13;2.80;;;;;;;22.38;22.56;101417.09;5039408;28;20076;-73
2021/04/12 13:35:26;;;;;;;4.00;3.08;;;;;;;22.49;21.76;101414.75;5038912;28;20017;-74
2021/04/12 13:38:21;;;;;;;6.55;3.00;;;;;;;22.82;20.39;101412.84;5057110;28;20033;-73
2021/04/12 13:41:07;;;;;;;4.40;2.80;;;;;;;22.14;20.41;101415.75;5056935;28;20108;-74
2021/04/12 13:43:56;;;;;;;4.97;2.90;;;;;;;22.67;20.85;101411.03;5056433;28;20099;-73
2021/04/12 13:47:05;;;;;;;9.52;3.58;;;;;;;22.52;20.81;101406.56;5056489;28;20024;-73
2021/04/12 13:49:57;;;;;;;10.25;3.70;;;;;;;22.45;21.46;101404.28;5042120;28;20021;-74
2021/04/12 13:52:51;;;;;;;6.85;3.25;;;;;;;22.39;21.73;101399.28;5056752;28;20033;-74
2021/04/12 13:55:49;;;;;;;7.30;3.42;;;;;;;22.16;21.79;101394.34;5042431;28;20051;-73
2021/04/12 13:58:42;;;;;;;6.57;3.15;;;;;;;21.89;21.76;101394.00;5056878;28;20020;-73
2021/04/12 14:01:38;;;;;;;6.93;3.20;;;;;;;22.24;21.75;101387.63;5057032;28;20094;-73
2021/04/12 14:04:34;;;;;;;5.95;3.28;;;;;;;21.64;21.83;101379.34;5041817;28;20098;-72
2021/04/12 14:07:41;;;;;;;5.20;3.22;;;;;;;21.79;21.85;101383.91;5056903;28;20093;-72
2021/04/12 14:10:37;;;;;;;5.85;3.08;;;;;;;21.93;21.65;101379.56;5056408;28;20423;-72
2021/04/12 14:13:38;;;;;;;5.50;3.20;;;;;;;22.10;21.67;101371.50;5056370;28;20063;-74